Time;durP1;ratioP1;P1;durP2;ratioP2;P2;SDS_P1;SDS_P2;PMS_P1;PMS_P2;Temp;Humidity;BMP_temperature;BMP_pressure;BME280_temperature;BME280_humidity;BME280_pressure;Samples;Min_cycle;Max_cycle;Signal;HPM_P1;HPM_P2
2022/01/02 00:00:14;;;;;;;3.97;0.73;;;28.60;99.90;;;;;;5082422;28;20188;-78
2022/01/02 00:02:51;;;;;;;3.03;0.90;;;28.70;99.90;;;;;;5081086;28;20189;-77
2022/01/02 00:05:24;;;;;;;4.32;0.90;;;28.60;99.90;;;;;;5081240;28;20637;-77
2022/01/02 00:07:59;;;;;;;3.08;0.77;;;28.40;99.90;;;;;;5081320;28;20192;-78
2022/01/02 00:10:33;;;;;;;4.07;0.73;;;28.30;99.90;;;;;;5075425;28;20224;-78
2022/01/02 00:13:04;;;;;;;4.43;0.80;;;28.40;99.90;;;;;;5070232;28;20259;-78
2022/01/02 00:15:35;;;;;;;3.85;0.88;;;28.40;99.90;;;;;;5077412;28;20196;-78
2022/01/02 00:18:11;;;;;;;3.90;0.85;;;28.40;99.90;;;;;;5093029;28;20184;-79
2022/01/02 00:20:47;;;;;;;5.85;1.00;;;28.60;99.90;;;;;;5082285;28;20563;-78
2022/01/02 00:23:21;;;;;;;5.05;1.00;;;28.50;99.90;;;;;;5081031;28;20601;-78
2022/01/02 00:25:54;;;;;;;8.27;1.05;;;28.60;99.90;;;;;;5076734;28;20188;-78
2022/01/02 00:28:25;;;;;;;6.05;0.90;;;28.80;99.90;;;;;;5073978;28;20181;-78
2022/01/02 00:30:56;;;;;;;6.70;0.93;;;28.70;99.90;;;;;;5082254;28;20270;-77
2022/01/02 00:33:29;;;;;;;4.45;1.00;;;28.50;99.90;;;;;;5078566;28;20560;-78
2022/01/02 00:36:04;;;;;;;5.53;1.00;;;28.60;99.90;;;;;;5074820;28;20193;-77
2022/01/02 00:38:35;;;;;;;5.43;1.17;;;28.70;99.90;;;;;;5074828;28;20196;-78
2022/01/02 00:41:06;;;;;;;4.15;0.95;;;28.60;99.90;;;;;;5074924;28;20200;-77
2022/01/02 00:43:48;;;;;;;3.30;0.88;;;28.40;99.90;;;;;;5078607;28;20204;-78
2022/01/02 00:46:21;;;;;;;3.78;0.82;;;28.50;99.90;;;;;;5073308;28;20182;-78
2022/01/02 00:49:01;;;;;;;5.70;0.90;;;28.50;99.90;;;;;;5074809;28;20213;-78
2022/01/02 00:51:43;;;;;;;6.63;0.80;;;28.70;99.90;;;;;;5082621;28;20274;-78
2022/01/02 00:54:16;;;;;;;3.17;0.65;;;28.70;99.90;;;;;;5054724;28;20612;-77
2022/01/02 00:56:48;;;;;;;4.03;0.82;;;28.90;99.90;;;;;;5081127;28;20258;-78
2022/01/02 00:59:29;;;;;;;5.55;0.85;;;29.00;99.90;;;;;;5074482;28;20196;-79
2022/01/02 01:02:04;;;;;;;5.07;1.08;;;28.90;99.90;;;;;;5078999;28;20187;-78
2022/01/02 01:04:39;;;;;;;5.82;0.95;;;29.00;99.90;;;;;;5086885;28;20263;-86
2022/01/02 01:07:10;;;;;;;4.28;0.90;;;28.90;99.90;;;;;;5054678;28;20189;-78
2022/01/02 01:09:41;;;;;;;2.58;0.70;;;28.80;99.90;;;;;;5081454;28;20204;-78
2022/01/02 01:12:12;;;;;;;3.90;0.73;;;28.80;99.90;;;;;;5092085;28;20208;-78
2022/01/02 01:14:43;;;;;;;4.68;1.08;;;28.90;99.90;;;;;;5091588;28;20224;-77
2022/01/02 01:17:14;;;;;;;3.67;1.00;;;28.90;99.90;;;;;;5089026;28;20188;-78
2022/01/02 01:19:49;;;;;;;5.63;1.10;;;28.80;99.90;;;;;;5086813;28;20197;-77
2022/01/02 01:22:20;;;;;;;5.45;1.00;;;28.80;99.90;;;;;;5090778;28;20275;-77
2022/01/02 01:24:50;;;;;;;6.10;0.95;;;28.80;99.90;;;;;;5084214;28;20234;-78
2022/01/02 01:27:21;;;;;;;7.55;1.35;;;28.80;99.90;;;;;;5087222;28;20192;-78
2022/01/02 01:29:52;;;;;;;4.60;0.75;;;28.70;99.90;;;;;;5089357;28;20216;-78
2022/01/02 01:32:22;;;;;;;6.68;1.20;;;28.60;99.90;;;;;;5076137;28;20220;-78
2022/01/02 01:34:55;;;;;;;6.05;1.13;;;28.60;99.90;;;;;;5077881;28;20189;-78
2022/01/02 01:37:25;;;;;;;6.80;0.98;;;28.80;99.90;;;;;;5073194;28;20185;-78
2022/01/02 01:39:56;;;;;;;7.10;1.02;;;28.90;99.90;;;;;;5073898;28;20196;-78
2022/01/02 01:42:35;;;;;;;5.38;1.10;;;28.90;99.90;;;;;;5090949;28;20236;-77
2022/01/02 01:47:50;;;;;;;6.55;1.00;;;28.90;99.90;;;;;;5073400;28;20723;-79
2022/01/02 01:50:23;;;;;;;4.38;0.82;;;28.80;99.90;;;;;;5066444;28;20210;-79
2022/01/02 01:52:54;;;;;;;9.73;1.73;;;28.80;99.90;;;;;;5064178;28;20196;-79
2022/01/02 01:55:25;;;;;;;8.27;1.25;;;28.60;99.90;;;;;;5086035;28;20192;-79
2022/01/02 01:57:56;;;;;;;7.78;1.35;;;28.70;99.90;;;;;;5093721;28;20185;-79
2022/01/02 02:00:27;;;;;;;9.85;1.30;;;28.70;99.90;;;;;;5083356;28;20189;-79
2022/01/02 02:02:59;;;;;;;6.18;1.00;;;28.60;99.90;;;;;;5074462;28;20235;-78
2022/01/02 02:05:32;;;;;;;7.22;1.05;;;28.60;99.90;;;;;;5087037;28;20188;-77
2022/01/02 02:08:03;;;;;;;5.57;1.17;;;28.60;99.90;;;;;;5091480;28;20196;-80
2022/01/02 02:10:39;;;;;;;5.45;1.40;;;28.70;99.90;;;;;;5075906;28;20228;-78
2022/01/02 02:13:10;;;;;;;7.15;1.20;;;28.70;99.90;;;;;;5076979;28;20636;-78
2022/01/02 02:15:43;;;;;;;5.22;1.02;;;28.70;99.90;;;;;;5091084;28;20192;-80
2022/01/02 02:18:14;;;;;;;5.82;1.20;;;28.80;99.90;;;;;;5089583;28;20664;-79
2022/01/02 02:20:47;;;;;;;6.00;1.05;;;28.80;99.90;;;;;;5083774;28;20294;-78
2022/01/02 02:23:18;;;;;;;7.80;1.30;;;28.80;99.90;;;;;;5071046;28;20193;-78
2022/01/02 02:25:49;;;;;;;7.43;1.40;;;28.70;99.90;;;;;;5056559;28;20186;-79
2022/01/02 02:28:25;;;;;;;7.70;1.48;;;28.80;99.90;;;;;;5081621;28;20203;-78
2022/01/02 02:30:57;;;;;;;8.45;1.40;;;28.90;99.90;;;;;;5076866;28;20238;-78
2022/01/02 02:33:28;;;;;;;5.20;1.30;;;29.00;99.90;;;;;;5081633;28;20203;-78
2022/01/02 02:36:01;;;;;;;6.68;1.40;;;28.90;99.90;;;;;;5084965;28;20184;-79
2022/01/02 02:38:32;;;;;;;8.52;1.30;;;28.80;99.90;;;;;;5080016;28;21023;-78
2022/01/02 02:41:03;;;;;;;4.60;1.15;;;28.90;99.90;;;;;;5078627;28;20657;-79
2022/01/02 02:43:40;;;;;;;7.03;1.23;;;28.90;99.90;;;;;;5078275;28;20186;-79
2022/01/02 02:49:05;;;;;;;7.13;1.35;;;28.70;99.90;;;;;;5080912;28;20560;-77
2022/01/02 02:51:49;;;;;;;7.88;1.60;;;28.90;99.90;;;;;;5083645;28;20199;-78
2022/01/02 02:54:23;;;;;;;9.00;1.50;;;28.90;99.90;;;;;;5081457;28;20233;-79
2022/01/02 02:56:58;;;;;;;7.53;1.42;;;28.80;99.90;;;;;;5085096;28;20194;-80
2022/01/02 02:59:30;;;;;;;10.27;1.40;;;29.00;99.90;;;;;;5059318;28;20275;-79
2022/01/02 03:02:01;;;;;;;10.10;1.95;;;28.90;99.90;;;;;;5075942;28;20193;-77
2022/01/02 03:04:32;;;;;;;7.07;1.65;;;28.90;99.90;;;;;;5092115;28;20188;-79
2022/01/02 03:07:05;;;;;;;6.78;1.45;;;28.70;99.90;;;;;;5094464;28;20215;-78
2022/01/02 03:09:47;;;;;;;6.25;1.33;;;28.80;99.90;;;;;;5078835;28;20205;-77
2022/01/02 03:12:18;;;;;;;7.45;1.30;;;28.70;99.90;;;;;;5082491;28;20188;-78
2022/01/02 03:14:49;;;;;;;7.50;1.50;;;28.70;99.90;;;;;;5080616;28;20228;-77
2022/01/02 03:17:23;;;;;;;7.57;1.23;;;28.60;99.90;;;;;;5078700;28;20189;-78
2022/01/02 03:19:53;;;;;;;7.88;1.50;;;28.60;99.90;;;;;;5075619;28;20185;-78
2022/01/02 03:22:26;;;;;;;7.18;1.35;;;28.80;99.90;;;;;;5075771;28;20189;-77
2022/01/02 03:24:57;;;;;;;8.85;1.50;;;28.90;99.90;;;;;;5076339;28;20206;-77
2022/01/02 03:27:28;;;;;;;5.80;1.38;;;29.00;99.90;;;;;;5075366;28;20192;-77
2022/01/02 03:29:58;;;;;;;7.90;1.30;;;28.80;99.90;;;;;;5076007;28;20223;-77
2022/01/02 03:32:32;;;;;;;7.05;1.38;;;28.80;99.90;;;;;;5058989;28;20197;-79
2022/01/02 03:35:03;;;;;;;9.52;1.63;;;28.80;99.90;;;;;;5076179;28;20671;-79
2022/01/02 03:37:35;;;;;;;6.50;1.30;;;29.00;99.90;;;;;;5075871;28;20193;-77
2022/01/02 03:40:09;;;;;;;7.38;1.23;;;28.70;99.90;;;;;;5075984;28;20227;-78
2022/01/02 03:42:40;;;;;;;6.82;1.33;;;28.60;99.90;;;;;;5075738;28;20193;-79
2022/01/02 03:45:11;;;;;;;9.18;1.58;;;28.70;99.90;;;;;;5075636;28;20185;-79
2022/01/02 03:47:44;;;;;;;9.10;1.40;;;28.80;99.90;;;;;;5075739;28;20192;-77
2022/01/02 03:50:15;;;;;;;7.35;1.40;;;28.80;99.90;;;;;;5075520;28;20265;-78
2022/01/02 03:52:48;;;;;;;9.25;1.42;;;29.00;99.90;;;;;;5075902;28;20197;-79
2022/01/02 03:55:19;;;;;;;6.80;1.40;;;29.10;99.90;;;;;;5074452;28;20196;-79
2022/01/02 03:57:50;;;;;;;8.90;1.58;;;29.20;99.90;;;;;;5075848;28;20189;-77
2022/01/02 04:00:21;;;;;;;7.13;1.42;;;29.00;99.90;;;;;;5075761;28;20250;-78
2022/01/02 04:02:52;;;;;;;9.32;1.52;;;28.90;99.90;;;;;;5075864;28;20192;-78
2022/01/02 04:05:23;;;;;;;7.32;1.45;;;28.80;99.90;;;;;;5075621;28;20197;-78
2022/01/02 04:07:55;;;;;;;10.00;1.40;;;28.70;99.90;;;;;;5075473;28;20189;-77
2022/01/02 04:10:26;;;;;;;7.13;1.33;;;28.70;99.90;;;;;;5078297;28;20227;-77
2022/01/02 04:12:57;;;;;;;10.57;1.60;;;28.70;99.90;;;;;;5078156;28;20220;-78
2022/01/02 04:15:27;;;;;;;7.47;1.40;;;28.80;99.90;;;;;;5071420;28;20695;-77
2022/01/02 04:17:58;;;;;;;7.45;1.15;;;28.80;99.90;;;;;;5064484;28;20208;-78
2022/01/02 04:20:29;;;;;;;8.02;1.30;;;29.00;99.90;;;;;;5075277;28;20200;-78
2022/01/02 04:23:01;;;;;;;6.82;1.30;;;29.00;99.90;;;;;;5073325;28;20200;-78
2022/01/02 04:25:32;;;;;;;7.60;1.20;;;28.90;99.90;;;;;;5068335;28;20209;-78
2022/01/02 04:28:03;;;;;;;9.43;1.67;;;28.90;99.90;;;;;;5074989;28;20193;-77
2022/01/02 04:30:33;;;;;;;9.35;1.40;;;28.90;99.90;;;;;;5074235;28;20236;-78
2022/01/02 04:33:04;;;;;;;7.45;1.35;;;28.70;99.90;;;;;;5059738;28;20193;-76
2022/01/02 04:35:34;;;;;;;7.97;1.30;;;28.60;99.90;;;;;;5075424;28;20637;-76
2022/01/02 04:38:07;;;;;;;8.70;1.27;;;28.80;99.90;;;;;;5082689;28;20549;-77
2022/01/02 04:40:38;;;;;;;7.97;1.50;;;28.70;99.90;;;;;;5094718;28;20199;-77
2022/01/02 04:43:09;;;;;;;9.27;1.65;;;28.60;99.90;;;;;;5078896;28;20193;-76
2022/01/02 04:45:40;;;;;;;7.50;1.35;;;28.50;99.90;;;;;;5078150;28;20188;-77
2022/01/02 04:48:10;;;;;;;8.68;1.40;;;28.40;99.90;;;;;;5081875;28;20189;-76
2022/01/02 04:50:41;;;;;;;9.32;1.40;;;28.50;99.90;;;;;;5089308;28;20215;-79
2022/01/02 04:53:14;;;;;;;8.23;1.30;;;28.50;99.90;;;;;;5083806;28;20216;-77
2022/01/02 04:55:45;;;;;;;8.85;1.40;;;28.40;99.90;;;;;;5074338;28;20188;-76
2022/01/02 04:58:15;;;;;;;5.80;1.15;;;28.40;99.90;;;;;;5074137;28;20185;-78
2022/01/02 05:00:46;;;;;;;6.30;1.50;;;28.30;99.90;;;;;;5072924;28;20189;-78
2022/01/02 05:03:17;;;;;;;8.40;1.35;;;28.30;99.90;;;;;;5072111;28;20193;-77
2022/01/02 05:05:47;;;;;;;6.30;1.27;;;28.30;99.90;;;;;;5069513;28;20192;-76
2022/01/02 05:08:20;;;;;;;9.27;1.42;;;28.30;99.90;;;;;;5074183;28;20192;-78
2022/01/02 05:10:50;;;;;;;12.02;1.60;;;28.20;99.90;;;;;;5073433;28;20676;-78
2022/01/02 05:13:21;;;;;;;7.93;1.35;;;28.00;99.90;;;;;;5072860;28;20577;-77
2022/01/02 05:15:52;;;;;;;9.45;1.60;;;28.00;99.90;;;;;;5074059;28;20275;-77
2022/01/02 05:18:23;;;;;;;6.43;1.10;;;28.00;99.90;;;;;;5073801;28;20196;-76
2022/01/02 05:20:53;;;;;;;8.02;1.20;;;28.00;99.90;;;;;;5075689;28;20201;-78
2022/01/02 05:23:26;;;;;;;6.15;1.40;;;27.90;99.90;;;;;;5071443;28;20181;-78
2022/01/02 05:25:57;;;;;;;7.70;1.33;;;28.00;99.90;;;;;;5078425;28;20189;-78
2022/01/02 05:28:28;;;;;;;9.43;1.50;;;28.00;99.90;;;;;;5074719;28;20236;-76
2022/01/02 05:30:59;;;;;;;9.18;1.65;;;28.10;99.90;;;;;;5075636;28;20274;-77
2022/01/02 05:33:32;;;;;;;8.93;1.50;;;28.00;99.90;;;;;;5073814;28;20714;-77
2022/01/02 05:36:02;;;;;;;8.95;1.42;;;28.00;99.90;;;;;;5078036;28;20275;-76
2022/01/02 05:38:35;;;;;;;6.90;1.45;;;27.80;99.90;;;;;;5092128;28;20195;-77
2022/01/02 05:41:06;;;;;;;9.88;1.35;;;27.80;99.90;;;;;;5091147;28;20192;-79
2022/01/02 05:43:37;;;;;;;8.93;1.50;;;27.70;99.90;;;;;;5073434;28;20215;-77
2022/01/02 05:46:07;;;;;;;10.27;1.42;;;27.70;99.90;;;;;;5072273;28;20189;-76
2022/01/02 05:48:38;;;;;;;9.30;1.50;;;27.60;99.90;;;;;;5086754;28;20189;-78
2022/01/02 05:51:11;;;;;;;6.85;1.38;;;27.70;99.90;;;;;;5093455;28;20212;-77
2022/01/02 05:53:43;;;;;;;10.13;1.30;;;27.70;99.90;;;;;;5089543;28;20188;-77
2022/01/02 05:56:14;;;;;;;11.13;1.52;;;27.70;99.90;;;;;;5076241;28;20284;-81
2022/01/02 05:58:45;;;;;;;6.50;1.02;;;27.60;99.90;;;;;;5075757;28;20203;-77
2022/01/02 06:01:15;;;;;;;6.50;1.15;;;27.50;99.90;;;;;;5083412;28;20643;-78
2022/01/02 06:03:46;;;;;;;7.32;1.20;;;27.50;99.90;;;;;;5074532;28;20200;-79
2022/01/02 06:06:17;;;;;;;6.60;1.13;;;27.60;99.90;;;;;;5084288;28;20184;-77
2022/01/02 06:08:49;;;;;;;8.82;1.33;;;27.50;99.90;;;;;;5080574;28;20193;-79
2022/01/02 06:11:20;;;;;;;8.65;1.50;;;27.40;99.90;;;;;;5084307;28;20661;-78
2022/01/02 06:13:51;;;;;;;6.60;1.10;;;27.30;99.90;;;;;;5086272;28;20230;-77
2022/01/02 06:16:22;;;;;;;5.10;1.30;;;27.30;99.90;;;;;;5087381;28;20180;-78
2022/01/02 06:18:53;;;;;;;4.97;1.23;;;27.30;99.90;;;;;;5086379;28;20188;-77
2022/01/02 06:21:24;;;;;;;5.55;1.00;;;27.30;99.90;;;;;;5080273;28;20189;-76
2022/01/02 06:23:56;;;;;;;7.40;1.25;;;27.40;99.90;;;;;;5076161;28;20565;-77
2022/01/02 06:26:27;;;;;;;5.30;1.00;;;27.30;99.90;;;;;;5090432;28;20648;-77
2022/01/02 06:29:02;;;;;;;7.07;1.40;;;27.40;99.90;;;;;;5087012;28;20196;-77
2022/01/02 06:31:33;;;;;;;5.80;1.10;;;27.50;99.90;;;;;;5083557;28;20200;-78
2022/01/02 06:34:05;;;;;;;7.90;1.23;;;27.70;99.90;;;;;;5073116;28;20267;-77
2022/01/02 06:36:35;;;;;;;8.23;1.45;;;27.60;99.90;;;;;;5067908;28;20530;-77
2022/01/02 06:39:08;;;;;;;10.23;1.40;;;27.60;99.90;;;;;;5070913;28;20193;-77
2022/01/02 06:41:39;;;;;;;6.82;1.33;;;27.60;99.90;;;;;;5076044;28;20184;-77
2022/01/02 06:44:10;;;;;;;7.50;1.17;;;27.60;99.90;;;;;;5069378;28;20204;-77
2022/01/02 06:46:41;;;;;;;5.97;1.00;;;27.40;99.90;;;;;;5064864;28;20204;-77
2022/01/02 06:49:15;;;;;;;6.38;1.27;;;27.40;99.90;;;;;;5065225;28;20211;-80
2022/01/02 06:51:46;;;;;;;8.90;1.40;;;27.40;99.90;;;;;;5065305;28;20215;-79
2022/01/02 06:54:19;;;;;;;8.30;1.40;;;27.30;99.90;;;;;;5064823;28;20209;-78
2022/01/02 06:56:49;;;;;;;9.20;1.40;;;27.40;99.90;;;;;;5066323;28;20270;-79
2022/01/02 06:59:23;;;;;;;11.32;1.17;;;27.20;99.90;;;;;;5065729;28;20193;-79
2022/01/02 07:01:57;;;;;;;6.25;1.10;;;27.20;99.90;;;;;;5065318;28;20236;-79
2022/01/02 07:04:27;;;;;;;9.32;1.30;;;27.10;99.90;;;;;;5066133;28;20238;-79
2022/01/02 07:06:58;;;;;;;11.00;2.08;;;27.10;99.90;;;;;;5063913;28;20250;-80
2022/01/02 07:09:32;;;;;;;9.88;1.35;;;26.90;99.90;;;;;;5064008;28;20286;-81
2022/01/02 07:12:03;;;;;;;6.68;1.40;;;26.90;99.90;;;;;;5065586;28;20692;-79
2022/01/02 07:14:36;;;;;;;8.45;1.88;;;26.80;99.90;;;;;;5077603;28;20225;-79
2022/01/02 07:17:07;;;;;;;7.78;1.45;;;26.70;99.90;;;;;;5080084;28;20193;-80
2022/01/02 07:19:40;;;;;;;10.98;1.80;;;26.70;99.90;;;;;;5072528;28;20555;-78
2022/01/02 07:22:11;;;;;;;12.07;1.50;;;26.60;99.90;;;;;;5067350;28;20189;-76
2022/01/02 07:24:50;;;;;;;9.32;1.70;;;26.60;99.90;;;;;;5072860;28;20185;-79
2022/01/02 07:27:21;;;;;;;7.38;1.65;;;26.50;99.90;;;;;;5082536;28;20275;-79
2022/01/02 07:29:54;;;;;;;8.35;1.50;;;26.50;99.90;;;;;;5077028;28;20279;-79
2022/01/02 07:32:25;;;;;;;10.18;1.80;;;26.50;99.90;;;;;;5084425;28;20213;-80
2022/01/02 07:34:56;;;;;;;14.00;1.73;;;26.40;99.90;;;;;;5083463;28;20189;-79
2022/01/02 07:37:27;;;;;;;10.23;1.80;;;26.40;99.90;;;;;;5076792;28;20193;-79
2022/01/02 07:39:59;;;;;;;12.63;1.85;;;26.40;99.90;;;;;;5074898;28;20645;-79
2022/01/02 07:42:30;;;;;;;11.30;2.00;;;26.50;99.90;;;;;;5076223;28;20598;-79
2022/01/02 07:45:01;;;;;;;11.63;1.60;;;26.50;99.90;;;;;;5073076;28;20211;-79
2022/01/02 07:47:31;;;;;;;13.27;1.98;;;26.40;99.90;;;;;;5059430;28;20202;-81
2022/01/02 07:50:02;;;;;;;7.85;1.80;;;26.40;99.90;;;;;;5058162;28;20208;-79
2022/01/02 07:52:33;;;;;;;11.38;1.90;;;26.30;99.90;;;;;;5064300;28;20213;-80
2022/01/02 07:55:08;;;;;;;11.93;1.90;;;26.20;99.90;;;;;;5067803;28;20189;-78
2022/01/02 07:57:41;;;;;;;10.00;1.70;;;26.30;99.90;;;;;;5061862;28;20656;-79
2022/01/02 08:00:13;;;;;;;12.60;1.80;;;26.20;99.90;;;;;;5062508;28;20248;-80
2022/01/02 08:02:44;;;;;;;7.80;1.42;;;26.10;99.90;;;;;;5065386;28;20699;-80
2022/01/02 08:05:14;;;;;;;11.55;1.83;;;26.00;99.90;;;;;;5065477;28;20653;-80
2022/01/02 08:07:45;;;;;;;8.30;1.58;;;26.00;99.90;;;;;;5064333;28;20205;-78
2022/01/02 08:10:18;;;;;;;10.43;1.85;;;26.00;99.90;;;;;;5064098;28;20560;-81
2022/01/02 08:12:48;;;;;;;10.95;1.90;;;25.90;99.90;;;;;;5065460;28;20271;-77
2022/01/02 08:15:19;;;;;;;11.93;1.73;;;25.80;99.90;;;;;;5064950;28;20208;-80
2022/01/02 08:17:50;;;;;;;8.77;1.35;;;25.70;99.90;;;;;;5064430;28;20217;-79
2022/01/02 08:20:20;;;;;;;10.60;1.73;;;25.70;99.90;;;;;;5065501;28;20200;-78
2022/01/02 08:22:51;;;;;;;9.88;1.67;;;25.60;99.90;;;;;;5064500;28;20972;-80
2022/01/02 08:25:24;;;;;;;14.63;1.80;;;25.40;99.90;;;;;;5064018;28;20192;-79
2022/01/02 08:27:55;;;;;;;11.18;1.77;;;25.30;99.90;;;;;;5062748;28;21394;-78
2022/01/02 08:30:25;;;;;;;12.38;1.92;;;25.20;99.90;;;;;;5064129;28;20252;-78
2022/01/02 08:32:56;;;;;;;15.68;1.80;;;25.20;99.90;;;;;;5065028;28;20243;-81
2022/01/02 08:35:27;;;;;;;9.13;1.70;;;25.10;99.90;;;;;;5057045;28;20247;-79
2022/01/02 08:37:57;;;;;;;11.68;1.90;;;25.00;99.90;;;;;;5064571;28;20201;-79
2022/01/02 08:40:30;;;;;;;10.63;1.60;;;25.00;99.90;;;;;;5062457;28;20200;-79
2022/01/02 08:43:01;;;;;;;16.73;2.10;;;24.90;99.90;;;;;;5056269;28;20209;-79
2022/01/02 08:45:31;;;;;;;9.98;1.80;;;24.80;99.90;;;;;;5076011;28;20196;-79
2022/01/02 08:48:02;;;;;;;8.77;1.45;;;24.80;99.90;;;;;;5086497;28;20188;-78
2022/01/02 08:50:34;;;;;;;10.18;1.60;;;24.70;99.90;;;;;;5083371;28;20193;-78
2022/01/02 08:53:04;;;;;;;12.27;1.70;;;24.70;99.90;;;;;;5081515;28;20220;-78
2022/01/02 08:55:37;;;;;;;11.93;1.98;;;24.70;99.90;;;;;;5080042;28;20193;-78
2022/01/02 08:58:08;;;;;;;10.32;2.00;;;24.70;99.90;;;;;;5074018;28;20185;-78
2022/01/02 09:00:39;;;;;;;11.30;1.77;;;24.70;99.90;;;;;;5074442;28;20281;-78
2022/01/02 09:03:10;;;;;;;10.35;2.00;;;24.60;99.90;;;;;;5074739;28;20212;-79
2022/01/02 09:05:41;;;;;;;10.30;1.60;;;24.60;99.90;;;;;;5078587;28;20189;-79
2022/01/02 09:08:12;;;;;;;11.43;1.90;;;24.50;99.90;;;;;;5074860;28;20665;-79
2022/01/02 09:10:45;;;;;;;14.32;1.60;;;24.50;99.90;;;;;;5074342;28;20192;-78
2022/01/02 09:13:15;;;;;;;12.18;1.88;;;24.50;99.90;;;;;;5084457;28;20228;-79
2022/01/02 09:15:46;;;;;;;14.10;1.85;;;24.50;99.90;;;;;;5092949;28;20192;-77
2022/01/02 09:18:17;;;;;;;11.48;1.70;;;24.50;99.90;;;;;;5063658;28;20193;-78
2022/01/02 09:20:48;;;;;;;12.80;1.85;;;24.40;99.90;;;;;;5093166;28;20200;-80
2022/01/02 09:23:19;;;;;;;14.82;1.83;;;24.30;99.90;;;;;;5072058;28;20211;-78
2022/01/02 09:25:51;;;;;;;10.38;1.67;;;24.30;99.90;;;;;;5076192;28;20608;-79
2022/01/02 09:28:22;;;;;;;12.23;2.13;;;24.30;99.90;;;;;;5093984;28;20705;-79
2022/01/02 09:30:53;;;;;;;10.95;1.90;;;24.30;99.90;;;;;;5083149;28;20546;-80
2022/01/02 09:33:23;;;;;;;12.77;1.80;;;24.20;99.90;;;;;;5072306;28;20228;-79
2022/01/02 09:35:54;;;;;;;19.05;2.90;;;24.20;99.90;;;;;;5073930;28;20196;-79
2022/01/02 09:38:25;;;;;;;12.45;2.10;;;24.20;99.90;;;;;;5073928;28;20197;-78
2022/01/02 09:40:57;;;;;;;11.80;1.73;;;24.20;99.90;;;;;;5093086;28;20671;-78
2022/01/02 09:43:28;;;;;;;15.50;2.30;;;24.10;99.90;;;;;;5093991;28;20192;-79
2022/01/02 09:45:59;;;;;;;12.00;2.25;;;24.10;99.90;;;;;;5080235;28;20239;-78
2022/01/02 09:48:31;;;;;;;15.40;2.13;;;24.10;99.90;;;;;;5078452;28;20212;-78
2022/01/02 09:51:02;;;;;;;13.20;1.77;;;24.10;99.90;;;;;;5074245;28;20193;-78
2022/01/02 09:53:32;;;;;;;17.30;2.20;;;24.10;99.90;;;;;;5087768;28;20212;-78
2022/01/02 09:56:05;;;;;;;15.18;2.20;;;24.10;99.90;;;;;;5093740;28;20207;-80
2022/01/02 09:58:36;;;;;;;12.25;1.70;;;24.00;99.90;;;;;;5089144;28;20655;-78
2022/01/02 10:01:07;;;;;;;13.55;2.25;;;24.00;99.90;;;;;;5086826;28;20192;-82
2022/01/02 10:03:46;;;;;;;11.43;1.83;;;24.00;99.90;;;;;;5093650;28;20569;-78
2022/01/02 10:06:16;;;;;;;12.10;2.00;;;24.00;99.90;;;;;;5078808;28;20198;-78
2022/01/02 10:08:47;;;;;;;11.23;1.95;;;24.00;99.90;;;;;;5087363;28;20197;-79
2022/01/02 10:11:22;;;;;;;15.45;2.28;;;24.00;99.90;;;;;;5077599;28;20230;-78
2022/01/02 10:13:54;;;;;;;16.77;2.45;;;24.00;99.90;;;;;;5082358;28;20235;-78
2022/01/02 10:16:31;;;;;;;15.45;2.05;;;23.90;99.90;;;;;;5093470;28;20189;-78
2022/01/02 10:19:04;;;;;;;11.05;2.00;;;23.90;99.90;;;;;;5085421;28;20222;-78
2022/01/02 10:21:36;;;;;;;15.90;2.13;;;23.90;99.90;;;;;;5073338;28;20193;-80
2022/01/02 10:24:15;;;;;;;14.77;2.70;;;23.90;99.90;;;;;;5076864;28;20187;-78
2022/01/02 10:27:08;;;;;;;14.85;2.28;;;23.90;99.90;;;;;;5088933;28;20196;-79
2022/01/02 10:29:52;;;;;;;12.60;2.47;;;23.90;99.90;;;;;;5087256;28;20597;-79
2022/01/02 10:32:31;;;;;;;15.18;2.33;;;23.90;99.90;;;;;;5058856;28;20209;-78
2022/01/02 10:35:14;;;;;;;13.70;1.98;;;23.90;99.90;;;;;;5078189;28;20200;-79
2022/01/02 10:37:46;;;;;;;13.70;2.53;;;23.90;99.90;;;;;;5074304;28;20649;-79
2022/01/02 10:40:34;;;;;;;14.65;1.98;;;23.80;99.90;;;;;;5072574;28;20192;-77
2022/01/02 10:43:09;;;;;;;17.33;2.03;;;23.80;99.90;;;;;;5075774;28;20560;-80
2022/01/02 10:45:43;;;;;;;10.63;1.63;;;23.80;99.90;;;;;;5073042;28;20196;-78
2022/01/02 10:48:15;;;;;;;13.27;2.00;;;23.80;99.90;;;;;;5093179;28;20191;-77
2022/01/02 10:51:03;;;;;;;11.50;2.13;;;23.80;99.90;;;;;;5084518;28;20192;-77
2022/01/02 10:53:35;;;;;;;15.45;2.42;;;23.80;99.90;;;;;;5062957;28;20228;-78
2022/01/02 10:56:08;;;;;;;12.73;2.13;;;23.80;99.90;;;;;;5076201;28;20192;-78
2022/01/02 10:58:43;;;;;;;9.55;1.88;;;23.70;99.90;;;;;;5080866;28;20649;-80
2022/01/02 11:01:13;;;;;;;14.95;2.25;;;23.70;99.90;;;;;;5084200;28;20188;-78
2022/01/02 11:03:46;;;;;;;13.95;1.90;;;23.70;99.90;;;;;;5074199;28;20192;-77
2022/01/02 11:06:25;;;;;;;11.65;1.90;;;23.70;99.90;;;;;;5082566;28;20556;-79
2022/01/02 11:08:58;;;;;;;14.35;2.20;;;23.70;99.90;;;;;;5083321;28;20196;-78
2022/01/02 11:11:30;;;;;;;12.20;2.17;;;23.70;99.90;;;;;;5076249;28;20192;-77
2022/01/02 11:14:02;;;;;;;13.55;1.85;;;23.60;99.90;;;;;;5073122;28;20239;-79
2022/01/02 11:16:34;;;;;;;12.15;1.95;;;23.60;99.90;;;;;;5075872;28;20193;-79
2022/01/02 11:19:11;;;;;;;13.40;2.15;;;23.60;99.90;;;;;;5076994;28;20216;-78
2022/01/02 11:21:45;;;;;;;18.92;2.58;;;23.60;99.90;;;;;;5076078;28;20203;-77
2022/01/02 11:24:20;;;;;;;14.05;1.80;;;23.60;99.90;;;;;;5071502;28;20706;-79
2022/01/02 11:26:56;;;;;;;10.43;2.17;;;23.60;99.90;;;;;;5075467;28;20562;-79
2022/01/02 11:29:32;;;;;;;13.65;1.55;;;23.60;99.90;;;;;;5075853;28;20192;-79
2022/01/02 11:32:21;;;;;;;15.75;2.08;;;23.60;99.90;;;;;;5075716;28;20189;-78
2022/01/02 11:34:52;;;;;;;10.15;1.50;;;23.60;99.90;;;;;;5075708;28;20563;-81
2022/01/02 11:37:25;;;;;;;12.07;1.92;;;23.60;99.90;;;;;;5076063;28;20193;-77
2022/01/02 11:39:58;;;;;;;12.02;2.10;;;23.60;99.90;;;;;;5075169;28;20189;-78
2022/01/02 11:42:48;;;;;;;14.25;2.33;;;23.50;99.90;;;;;;5087010;28;20200;-78
2022/01/02 11:45:45;;;;;;;12.18;2.15;;;23.60;99.90;;;;;;5096358;28;20192;-79
2022/01/02 11:48:34;;;;;;;13.23;1.98;;;23.60;99.90;;;;;;5095416;28;20535;-77
2022/01/02 11:51:04;;;;;;;11.88;1.92;;;23.50;99.90;;;;;;5075784;28;20189;-78
2022/01/02 11:53:36;;;;;;;15.52;1.98;;;23.60;99.90;;;;;;5075035;28;20217;-78
2022/01/02 11:56:07;;;;;;;12.65;2.30;;;23.50;99.90;;;;;;5074957;28;20232;-79
2022/01/02 11:58:52;;;;;;;19.38;2.20;;;23.50;99.90;;;;;;5077649;28;20192;-78
2022/01/02 12:01:50;;;;;;;12.90;2.33;;;23.50;99.90;;;;;;5080507;28;20200;-76
2022/01/02 12:04:21;;;;;;;15.05;2.20;;;23.50;99.90;;;;;;5075090;28;20583;-78
2022/01/02 12:06:52;;;;;;;12.85;2.20;;;23.50;99.90;;;;;;5076521;28;20189;-78
2022/01/02 12:09:40;;;;;;;14.57;2.35;;;23.50;99.90;;;;;;5075225;28;20189;-78
2022/01/02 12:12:11;;;;;;;10.70;2.05;;;23.50;99.90;;;;;;5079085;28;20238;-78
2022/01/02 12:14:56;;;;;;;12.20;2.10;;;23.50;99.90;;;;;;5059824;28;20224;-78
2022/01/02 12:17:28;;;;;;;12.50;2.25;;;23.50;99.90;;;;;;5075322;28;20646;-80
2022/01/02 12:20:09;;;;;;;19.70;2.38;;;23.50;99.90;;;;;;5078735;28;20659;-78
2022/01/02 12:22:45;;;;;;;12.00;1.92;;;23.40;99.90;;;;;;5075641;28;20666;-78
2022/01/02 12:25:19;;;;;;;14.90;2.55;;;23.50;99.90;;;;;;5077627;28;20230;-77
2022/01/02 12:27:55;;;;;;;12.65;2.00;;;23.50;99.90;;;;;;5081074;28;20193;-78
2022/01/02 12:30:26;;;;;;;15.10;2.28;;;23.40;99.90;;;;;;5070744;28;20592;-77
2022/01/02 12:32:59;;;;;;;13.65;2.10;;;23.40;99.90;;;;;;5060971;28;20700;-78
2022/01/02 12:35:41;;;;;;;16.92;2.03;;;23.50;99.90;;;;;;5074899;28;20251;-77
2022/01/02 12:38:12;;;;;;;14.73;2.38;;;23.40;99.90;;;;;;5091664;28;20228;-78
2022/01/02 12:40:43;;;;;;;19.15;2.80;;;23.40;99.90;;;;;;5087946;28;20192;-78
2022/01/02 12:43:14;;;;;;;14.93;2.47;;;23.40;99.90;;;;;;5075226;28;20195;-77
2022/01/02 12:45:44;;;;;;;15.60;2.38;;;23.40;99.90;;;;;;5060948;28;20205;-78
2022/01/02 12:48:32;;;;;;;13.40;2.05;;;23.40;99.90;;;;;;5080464;28;20200;-77
2022/01/02 12:51:14;;;;;;;11.52;1.95;;;23.40;99.90;;;;;;5086074;28;20196;-78
2022/01/02 12:53:45;;;;;;;15.73;1.90;;;23.40;99.90;;;;;;5075377;28;20274;-78
2022/01/02 12:56:15;;;;;;;15.45;2.40;;;23.30;99.90;;;;;;5090692;28;20193;-78
2022/01/02 12:58:46;;;;;;;19.30;2.22;;;23.30;99.90;;;;;;5072792;28;20199;-77
2022/01/02 13:01:16;;;;;;;8.38;1.88;;;23.30;99.90;;;;;;5072607;28;20189;-78
2022/01/02 13:03:50;;;;;;;15.10;2.50;;;23.30;99.90;;;;;;5070286;28;20633;-78
2022/01/02 13:06:25;;;;;;;10.02;1.58;;;23.30;99.90;;;;;;5073245;28;20191;-77
2022/01/02 13:09:00;;;;;;;12.73;2.05;;;23.30;99.90;;;;;;5087206;28;20192;-77
2022/01/02 13:11:39;;;;;;;15.20;2.20;;;23.30;99.90;;;;;;5076430;28;20636;-77
2022/01/02 13:14:09;;;;;;;13.85;2.30;;;23.40;99.90;;;;;;5084986;28;20242;-78
2022/01/02 13:16:40;;;;;;;12.75;1.75;;;23.40;99.90;;;;;;5084721;28;20195;-77